createdAt,value
2018-11-29T00:00:44.782Z,-2.70
2018-11-29T00:03:11.966Z,-2.64
2018-11-29T00:05:39.778Z,-2.76
2018-11-29T00:08:06.994Z,-2.71
2018-11-29T00:10:34.190Z,-2.65
2018-11-29T00:13:01.395Z,-2.58
2018-11-29T00:15:28.519Z,-2.62
2018-11-29T00:17:55.703Z,-2.65
2018-11-29T00:20:22.859Z,-2.74
2018-11-29T00:22:50.565Z,-2.84
2018-11-29T00:25:18.312Z,-2.79
2018-11-29T00:27:45.674Z,-2.72
2018-11-29T00:30:21.645Z,-2.66
2018-11-29T00:32:49.322Z,-2.65
2018-11-29T00:35:16.780Z,-2.74
2018-11-29T00:37:44.003Z,-2.73
2018-11-29T00:40:14.720Z,-2.78
2018-11-29T00:42:41.957Z,-2.86
2018-11-29T00:45:12.092Z,-2.84
2018-11-29T00:47:39.443Z,-2.93
2018-11-29T00:50:11.444Z,-2.85
2018-11-29T00:52:39.429Z,-2.88
2018-11-29T00:55:08.099Z,-2.76
2018-11-29T00:57:35.251Z,-2.86
2018-11-29T01:00:02.434Z,-2.86
2018-11-29T01:02:29.584Z,-2.93
2018-11-29T01:04:56.767Z,-2.88
2018-11-29T01:07:23.941Z,-3.00
2018-11-29T01:09:51.163Z,-2.92
2018-11-29T01:12:18.309Z,-2.89
2018-11-29T01:17:19.320Z,-2.79
2018-11-29T01:19:46.598Z,-2.86
2018-11-29T01:22:13.779Z,-2.83
2018-11-29T01:24:40.936Z,-2.86
2018-11-29T01:27:08.090Z,-2.88
2018-11-29T01:29:35.210Z,-3.00
2018-11-29T01:32:02.403Z,-3.15
2018-11-29T01:34:29.579Z,-3.01
2018-11-29T01:36:56.726Z,-3.10
2018-11-29T01:39:23.871Z,-3.07
2018-11-29T01:41:51.006Z,-3.05
2018-11-29T01:44:18.155Z,-3.07
2018-11-29T01:46:45.282Z,-3.06
2018-11-29T01:49:12.463Z,-3.03
2018-11-29T01:51:39.654Z,-3.08
2018-11-29T01:54:06.762Z,-3.16
2018-11-29T01:56:33.967Z,-3.14
2018-11-29T01:59:01.149Z,-3.13
2018-11-29T02:01:28.300Z,-3.19
2018-11-29T02:03:55.499Z,-3.07
2018-11-29T02:06:22.691Z,-3.12
2018-11-29T02:08:49.841Z,-3.18
2018-11-29T02:11:17.031Z,-3.12
2018-11-29T02:13:44.207Z,-3.18
2018-11-29T02:16:11.351Z,-3.25
2018-11-29T02:18:38.482Z,-3.24
2018-11-29T02:21:06.539Z,-3.26
2018-11-29T02:23:33.651Z,-3.35
2018-11-29T02:26:00.846Z,-3.29
2018-11-29T02:28:27.970Z,-3.32
2018-11-29T02:30:55.197Z,-3.40
2018-11-29T02:33:22.351Z,-3.49
2018-11-29T02:35:49.535Z,-3.41
2018-11-29T02:38:16.697Z,-3.30
2018-11-29T02:40:43.821Z,-3.48
2018-11-29T02:43:10.990Z,-3.33
2018-11-29T02:45:38.122Z,-3.30
2018-11-29T02:48:05.758Z,-3.17
2018-11-29T02:50:32.946Z,-3.36
2018-11-29T02:53:00.095Z,-3.20
2018-11-29T02:55:27.255Z,-3.15
2018-11-29T02:57:54.467Z,-3.06
2018-11-29T03:00:21.590Z,-3.29
2018-11-29T03:02:48.782Z,-3.39
2018-11-29T03:05:16.651Z,-3.33
2018-11-29T03:07:43.847Z,-3.38
2018-11-29T03:10:12.060Z,-3.34
2018-11-29T03:12:39.367Z,-3.31
2018-11-29T03:15:12.444Z,-3.51
2018-11-29T03:17:39.738Z,-3.50
2018-11-29T03:20:08.274Z,-3.42
2018-11-29T03:22:35.494Z,-3.38
2018-11-29T03:25:02.836Z,-3.34
2018-11-29T03:27:30.026Z,-3.37
2018-11-29T03:29:57.211Z,-3.32
2018-11-29T03:32:24.427Z,-3.45
2018-11-29T03:34:51.603Z,-3.40
2018-11-29T03:37:19.301Z,-3.52
2018-11-29T03:39:46.477Z,-3.43
2018-11-29T03:42:13.690Z,-3.40
2018-11-29T03:44:40.880Z,-3.49
2018-11-29T03:47:08.083Z,-3.53
2018-11-29T03:49:35.232Z,-3.71
2018-11-29T03:52:02.529Z,-3.61
2018-11-29T03:54:29.725Z,-3.57
2018-11-29T03:56:56.939Z,-3.59
2018-11-29T03:59:24.075Z,-3.63
2018-11-29T04:01:51.222Z,-3.68
2018-11-29T04:04:18.376Z,-3.62
2018-11-29T04:06:45.715Z,-3.50
2018-11-29T04:09:12.878Z,-3.67
2018-11-29T04:11:40.088Z,-3.66
2018-11-29T04:14:07.250Z,-3.59
2018-11-29T04:16:34.435Z,-3.55
2018-11-29T04:19:01.970Z,-3.50
2018-11-29T04:21:29.095Z,-3.47
2018-11-29T04:23:56.254Z,-3.49
2018-11-29T04:26:23.425Z,-3.58
2018-11-29T04:28:50.578Z,-3.70
2018-11-29T04:31:17.784Z,-3.64
2018-11-29T04:33:45.002Z,-3.66
2018-11-29T04:36:12.164Z,-3.61
2018-11-29T04:38:39.335Z,-3.53
2018-11-29T04:41:06.517Z,-3.57
2018-11-29T04:43:33.687Z,-3.65
2018-11-29T04:47:05.150Z,-3.59
2018-11-29T04:49:32.312Z,-3.61
2018-11-29T04:51:59.473Z,-3.62
2018-11-29T04:54:26.597Z,-3.65
2018-11-29T04:56:53.815Z,-3.70
2018-11-29T04:59:21.006Z,-3.70
2018-11-29T05:01:48.198Z,-3.65
2018-11-29T05:04:15.336Z,-3.59
2018-11-29T05:06:42.497Z,-3.49
2018-11-29T05:09:09.991Z,-3.51
2018-11-29T05:11:37.444Z,-3.63
2018-11-29T05:14:05.012Z,-3.59
2018-11-29T05:16:32.219Z,-3.62
2018-11-29T05:18:59.497Z,-3.68
2018-11-29T05:21:26.676Z,-3.62
2018-11-29T05:23:53.842Z,-3.74
2018-11-29T05:26:21.035Z,-3.64
2018-11-29T05:28:48.170Z,-3.67
2018-11-29T05:31:15.364Z,-3.58
2018-11-29T05:33:42.533Z,-3.57
2018-11-29T05:36:09.664Z,-3.48
2018-11-29T05:38:36.807Z,-3.55
2018-11-29T05:41:03.962Z,-3.65
2018-11-29T05:43:31.154Z,-3.75
2018-11-29T05:45:58.274Z,-3.79
2018-11-29T05:48:25.487Z,-3.78
2018-11-29T05:50:52.790Z,-3.91
2018-11-29T05:53:21.097Z,-3.91
2018-11-29T05:55:48.322Z,-3.93
2018-11-29T05:58:15.472Z,-3.90
2018-11-29T06:00:42.791Z,-3.93
2018-11-29T06:03:09.962Z,-3.90
2018-11-29T06:05:37.147Z,-3.87
2018-11-29T06:08:04.506Z,-3.81
2018-11-29T06:10:31.659Z,-3.75
2018-11-29T06:12:58.837Z,-3.75
2018-11-29T06:15:26.234Z,-3.74
2018-11-29T06:17:53.439Z,-3.79
2018-11-29T06:20:20.698Z,-3.82
2018-11-29T06:22:47.875Z,-3.94
2018-11-29T06:25:15.459Z,-3.94
2018-11-29T06:27:42.636Z,-3.95
2018-11-29T06:30:13.211Z,-3.96
2018-11-29T06:32:40.395Z,-3.92
2018-11-29T06:35:07.613Z,-3.87
2018-11-29T06:37:34.789Z,-3.92
2018-11-29T06:40:02.149Z,-4.01
2018-11-29T06:42:29.322Z,-4.07
2018-11-29T06:44:56.534Z,-4.04
2018-11-29T06:47:23.670Z,-3.98
2018-11-29T06:49:50.870Z,-4.01
2018-11-29T06:52:18.110Z,-3.87
2018-11-29T06:54:45.282Z,-4.03
2018-11-29T06:57:12.494Z,-3.96
2018-11-29T06:59:39.618Z,-3.93
2018-11-29T07:02:06.755Z,-4.00
2018-11-29T07:04:34.022Z,-4.01
2018-11-29T07:07:01.167Z,-3.97
2018-11-29T07:09:28.332Z,-3.91
2018-11-29T07:11:55.534Z,-3.90
2018-11-29T07:14:22.658Z,-4.04
2018-11-29T07:16:49.887Z,-4.00
2018-11-29T07:19:17.066Z,-3.82
2018-11-29T07:21:50.850Z,-3.77
2018-11-29T07:24:18.053Z,-3.92
2018-11-29T07:26:45.255Z,-3.89
2018-11-29T07:29:16.866Z,-3.88
2018-11-29T07:31:39.602Z,-3.91
2018-11-29T07:34:06.822Z,-3.83
2018-11-29T07:36:33.965Z,-3.87
2018-11-29T07:39:01.150Z,-3.77
2018-11-29T07:41:28.313Z,-3.74
2018-11-29T07:43:55.460Z,-3.76
2018-11-29T07:46:22.642Z,-3.72
2018-11-29T07:48:49.763Z,-3.73
2018-11-29T07:51:16.898Z,-3.63
2018-11-29T07:53:44.078Z,-3.46
2018-11-29T07:56:11.230Z,-3.45
2018-11-29T07:58:38.386Z,-3.52
2018-11-29T08:01:06.035Z,-3.35
2018-11-29T08:03:33.831Z,-3.24
2018-11-29T08:06:00.793Z,-3.41
2018-11-29T08:08:27.899Z,-3.20
2018-11-29T08:10:55.070Z,-3.07
2018-11-29T08:13:22.203Z,-2.96
2018-11-29T08:15:49.414Z,-2.86
2018-11-29T08:18:16.570Z,-2.98
2018-11-29T08:20:43.713Z,-2.87
2018-11-29T08:23:10.919Z,-3.03
2018-11-29T08:25:38.145Z,-2.83
2018-11-29T08:28:05.480Z,-2.75
2018-11-29T08:30:32.638Z,-2.64
2018-11-29T08:33:00.571Z,-2.64
2018-11-29T08:35:27.738Z,-2.61
2018-11-29T08:37:54.919Z,-2.50
2018-11-29T08:40:22.107Z,-2.44
2018-11-29T08:42:49.357Z,-2.36
2018-11-29T08:45:16.597Z,-2.39
2018-11-29T08:47:43.819Z,-2.52
2018-11-29T09:03:11.255Z,-2.42
2018-11-29T09:05:38.388Z,-2.12
2018-11-29T09:08:05.583Z,-2.06
2018-11-29T09:10:32.743Z,-1.95
2018-11-29T09:13:06.848Z,-1.93
2018-11-29T09:15:33.960Z,-1.77
2018-11-29T09:18:01.096Z,-1.71
2018-11-29T09:20:28.344Z,-1.76
2018-11-29T09:22:55.480Z,-1.77
2018-11-29T09:25:22.663Z,-1.59
2018-11-29T09:27:49.853Z,-1.40
2018-11-29T09:30:18.857Z,-1.40
2018-11-29T09:32:46.866Z,-1.21
2018-11-29T09:35:14.078Z,-1.16
2018-11-29T09:37:41.414Z,-0.99
2018-11-29T09:40:11.667Z,-1.13
2018-11-29T09:42:39.214Z,-1.23
2018-11-29T09:45:14.367Z,-1.12
2018-11-29T09:47:42.019Z,-1.19
2018-11-29T09:50:11.068Z,-1.01
2018-11-29T09:52:38.684Z,-0.99
2018-11-29T09:55:06.376Z,-0.91
2018-11-29T09:57:33.526Z,-0.99
2018-11-29T10:00:00.713Z,-0.83
2018-11-29T10:02:27.854Z,-0.82
2018-11-29T10:04:55.028Z,-0.70
2018-11-29T10:07:22.153Z,-0.68
2018-11-29T10:09:49.370Z,-0.70
2018-11-29T10:12:16.574Z,-0.70
2018-11-29T10:14:43.761Z,-0.58
2018-11-29T10:17:10.918Z,-0.56
2018-11-29T10:19:38.076Z,-0.50
2018-11-29T10:22:05.361Z,-0.45
2018-11-29T10:24:32.671Z,-0.33
2018-11-29T10:26:59.840Z,-0.25
2018-11-29T10:29:27.002Z,-0.23
2018-11-29T10:31:54.194Z,-0.13
2018-11-29T10:34:21.307Z,0.05
2018-11-29T10:36:48.438Z,-0.21
2018-11-29T10:39:15.566Z,-0.04
2018-11-29T10:41:42.722Z,0.09
2018-11-29T10:44:09.850Z,0.20
2018-11-29T10:46:37.042Z,0.10
2018-11-29T10:49:04.219Z,0.08
2018-11-29T10:51:31.340Z,0.28
2018-11-29T10:53:58.543Z,0.42
2018-11-29T10:56:25.893Z,0.53
2018-11-29T10:58:52.999Z,0.65
2018-11-29T11:01:25.890Z,0.74
2018-11-29T11:03:53.050Z,0.71
2018-11-29T11:06:20.218Z,0.61
2018-11-29T11:08:47.434Z,0.67
2018-11-29T11:11:14.599Z,0.72
2018-11-29T11:13:41.757Z,0.79
2018-11-29T11:16:09.862Z,0.88
2018-11-29T11:18:36.257Z,0.84
2018-11-29T11:21:03.494Z,1.01
2018-11-29T11:23:30.686Z,0.94
2018-11-29T11:25:57.882Z,0.91
2018-11-29T11:28:25.039Z,0.95
2018-11-29T11:30:52.227Z,1.16
2018-11-29T11:33:19.347Z,1.28
2018-11-29T11:35:46.554Z,1.28
2018-11-29T11:38:13.698Z,1.25
2018-11-29T11:40:40.945Z,1.14
2018-11-29T11:43:08.175Z,1.06
2018-11-29T11:45:35.389Z,1.14
2018-11-29T11:48:03.443Z,1.08
2018-11-29T11:50:29.805Z,1.25
2018-11-29T11:52:57.000Z,1.32
2018-11-29T11:55:29.904Z,1.37
2018-11-29T11:57:51.807Z,1.65
2018-11-29T12:00:19.831Z,1.81
2018-11-29T12:02:48.462Z,1.68
2018-11-29T12:05:15.713Z,1.86
2018-11-29T12:07:42.846Z,1.67
2018-11-29T12:10:11.382Z,1.55
2018-11-29T12:12:38.531Z,1.82
2018-11-29T12:15:08.490Z,1.68
2018-11-29T12:17:35.708Z,1.74
2018-11-29T12:20:03.253Z,1.77
2018-11-29T12:22:30.425Z,1.65
2018-11-29T12:24:57.545Z,1.60
2018-11-29T12:27:24.738Z,1.85
2018-11-29T12:29:51.914Z,1.92
2018-11-29T12:32:19.080Z,1.88
2018-11-29T12:34:46.234Z,1.94
2018-11-29T12:37:13.367Z,1.99
2018-11-29T12:39:40.523Z,1.84
2018-11-29T12:42:07.674Z,2.11
2018-11-29T12:44:34.818Z,2.03
2018-11-29T12:47:02.006Z,2.06
2018-11-29T12:49:29.181Z,1.86
2018-11-29T12:51:56.365Z,2.07
2018-11-29T12:54:23.515Z,2.24
2018-11-29T12:56:50.652Z,2.32
2018-11-29T12:59:17.834Z,2.41
2018-11-29T13:01:45.013Z,2.55
2018-11-29T13:04:12.179Z,2.47
2018-11-29T13:06:39.306Z,2.74
2018-11-29T13:09:08.195Z,2.85
2018-11-29T13:11:35.368Z,2.56
2018-11-29T13:14:02.630Z,2.44
2018-11-29T13:16:29.829Z,2.40
2018-11-29T13:18:57.051Z,2.75
2018-11-29T13:21:24.175Z,2.77
2018-11-29T13:23:51.310Z,2.63
2018-11-29T13:26:18.529Z,2.66
2018-11-29T13:28:45.713Z,2.63
2018-11-29T13:31:12.871Z,2.48
2018-11-29T13:33:40.019Z,2.32
2018-11-29T13:36:07.204Z,2.21
2018-11-29T13:38:34.335Z,2.23
2018-11-29T13:41:01.633Z,2.27
2018-11-29T13:43:28.801Z,2.09
2018-11-29T13:45:56.027Z,1.95
2018-11-29T13:48:23.633Z,1.85
2018-11-29T13:50:50.481Z,1.81
2018-11-29T13:53:17.649Z,1.99
2018-11-29T13:55:44.778Z,1.94
2018-11-29T13:58:11.931Z,1.91
2018-11-29T14:00:39.127Z,1.75
2018-11-29T14:03:10.663Z,1.77
2018-11-29T14:05:37.826Z,1.95
2018-11-29T14:08:05.993Z,1.93
2018-11-29T14:10:33.339Z,1.69
2018-11-29T14:13:00.494Z,1.68
2018-11-29T14:15:28.005Z,1.55
2018-11-29T14:17:55.206Z,1.33
2018-11-29T14:20:22.431Z,1.35
2018-11-29T14:22:49.624Z,1.21
2018-11-29T14:25:17.068Z,1.04
2018-11-29T14:27:46.633Z,1.17
2018-11-29T14:30:16.875Z,1.03
2018-11-29T14:32:44.057Z,1.02
2018-11-29T14:35:11.236Z,0.96
2018-11-29T14:37:38.370Z,0.94
2018-11-29T14:40:09.977Z,0.69
2018-11-29T14:42:37.139Z,0.52
2018-11-29T14:45:07.138Z,0.64
2018-11-29T14:47:34.362Z,0.68
2018-11-29T14:50:01.536Z,0.57
2018-11-29T14:52:28.710Z,0.48
2018-11-29T14:54:55.882Z,0.51
2018-11-29T14:57:23.062Z,0.51
2018-11-29T14:59:50.245Z,0.47
2018-11-29T15:02:17.420Z,0.35
2018-11-29T15:04:44.615Z,0.36
2018-11-29T15:07:11.755Z,0.14
2018-11-29T15:09:38.966Z,0.03
2018-11-29T15:12:06.121Z,0.07
2018-11-29T15:14:33.266Z,0.11
2018-11-29T15:17:00.419Z,0.03
2018-11-29T15:19:27.590Z,-0.04
2018-11-29T15:21:54.782Z,-0.21
2018-11-29T15:24:21.936Z,-0.07
2018-11-29T15:26:49.243Z,-0.13
2018-11-29T15:29:16.365Z,-0.14
2018-11-29T15:31:43.722Z,-0.28
2018-11-29T15:34:10.850Z,-0.28
2018-11-29T15:36:38.037Z,-0.24
2018-11-29T15:39:07.350Z,-0.33
2018-11-29T15:41:34.630Z,-0.33
2018-11-29T15:44:01.824Z,-0.32
2018-11-29T15:46:29.035Z,-0.34
2018-11-29T15:48:56.220Z,-0.37
2018-11-29T15:51:23.406Z,-0.31
2018-11-29T15:53:50.575Z,-0.36
2018-11-29T15:56:17.781Z,-0.37
2018-11-29T15:58:45.111Z,-0.35
2018-11-29T16:01:12.315Z,-0.42
2018-11-29T16:03:39.474Z,-0.54
2018-11-29T16:06:06.628Z,-0.61
2018-11-29T16:08:34.002Z,-0.63
2018-11-29T16:11:01.180Z,-0.59
2018-11-29T16:13:28.314Z,-0.58
2018-11-29T16:15:55.513Z,-0.50
2018-11-29T16:18:22.702Z,-0.57
2018-11-29T16:20:49.855Z,-0.67
2018-11-29T16:23:17.070Z,-0.58
2018-11-29T16:25:44.299Z,-0.52
2018-11-29T16:28:14.985Z,-0.54
2018-11-29T16:30:47.011Z,-0.69
2018-11-29T16:33:20.042Z,-0.64
2018-11-29T16:35:47.254Z,-0.69
2018-11-29T16:38:14.416Z,-0.77
2018-11-29T16:40:41.593Z,-0.85
2018-11-29T16:43:08.811Z,-0.73
2018-11-29T16:45:36.328Z,-0.78
2018-11-29T16:48:03.558Z,-0.84
2018-11-29T16:50:30.807Z,-0.82
2018-11-29T16:52:58.058Z,-0.84
2018-11-29T16:55:25.279Z,-0.87
2018-11-29T16:57:54.438Z,-0.86
2018-11-29T17:00:22.298Z,-0.81
2018-11-29T17:02:49.630Z,-0.81
2018-11-29T17:05:16.948Z,-0.68
2018-11-29T17:07:44.183Z,-0.87
2018-11-29T17:10:13.457Z,-0.81
2018-11-29T17:12:41.518Z,-0.84
2018-11-29T17:15:11.426Z,-0.81
2018-11-29T17:17:38.707Z,-0.90
2018-11-29T17:20:08.929Z,-0.89
2018-11-29T17:22:36.163Z,-0.88
2018-11-29T17:25:03.656Z,-0.82
2018-11-29T17:27:30.903Z,-0.84
2018-11-29T17:29:58.225Z,-0.84
2018-11-29T17:32:25.406Z,-0.84
2018-11-29T17:34:52.989Z,-0.79
2018-11-29T17:37:20.407Z,-0.67
2018-11-29T17:39:47.659Z,-0.75
2018-11-29T17:42:15.000Z,-0.79
2018-11-29T17:44:42.602Z,-0.88
2018-11-29T17:47:09.874Z,-0.87
2018-11-29T17:49:37.170Z,-0.87
2018-11-29T17:52:04.631Z,-0.91
2018-11-29T17:54:31.911Z,-0.88
2018-11-29T17:56:59.243Z,-0.78
2018-11-29T17:59:27.147Z,-0.86
2018-11-29T18:01:54.622Z,-0.85
2018-11-29T18:04:22.287Z,-0.91
2018-11-29T18:06:49.904Z,-0.93
2018-11-29T18:09:17.366Z,-0.85
2018-11-29T18:11:44.940Z,-0.92
2018-11-29T18:14:12.449Z,-0.93
2018-11-29T18:16:39.811Z,-0.94
2018-11-29T18:19:07.305Z,-0.90
2018-11-29T18:21:34.805Z,-0.94
2018-11-29T18:24:02.284Z,-0.92
2018-11-29T18:26:29.894Z,-0.87
2018-11-29T18:28:57.270Z,-0.97
2018-11-29T18:31:24.578Z,-0.97
2018-11-29T18:33:52.251Z,-0.98
2018-11-29T18:36:19.768Z,-0.95
2018-11-29T18:38:47.103Z,-0.98
2018-11-29T18:41:14.463Z,-0.96
2018-11-29T18:43:41.949Z,-0.94
2018-11-29T18:46:09.361Z,-0.91
2018-11-29T18:48:36.949Z,-0.94
2018-11-29T18:51:04.753Z,-0.99
2018-11-29T18:53:32.371Z,-0.94
2018-11-29T18:56:00.628Z,-0.90
2018-11-29T18:58:27.367Z,-0.89
2018-11-29T19:00:54.574Z,-0.97
2018-11-29T19:03:21.812Z,-0.92
2018-11-29T19:05:49.088Z,-0.87
2018-11-29T19:08:16.330Z,-0.87
2018-11-29T19:10:43.608Z,-0.85
2018-11-29T19:13:11.892Z,-0.72
2018-11-29T19:15:39.029Z,-0.71
2018-11-29T19:18:10.490Z,-0.82
2018-11-29T19:20:34.082Z,-0.84
2018-11-29T19:23:01.235Z,-0.86
2018-11-29T19:25:28.488Z,-0.87
2018-11-29T19:27:55.722Z,-0.90
2018-11-29T19:30:25.029Z,-0.90
2018-11-29T19:33:01.038Z,-0.83
2018-11-29T19:35:28.897Z,-0.90
2018-11-29T19:37:56.103Z,-0.85
2018-11-29T19:40:23.343Z,-0.84
2018-11-29T19:42:50.577Z,-0.85
2018-11-29T19:45:17.820Z,-0.88
2018-11-29T19:47:45.028Z,-0.92
2018-11-29T19:50:16.106Z,-0.82
2018-11-29T19:52:44.539Z,-0.80
2018-11-29T19:55:14.340Z,-0.94
2018-11-29T19:57:41.606Z,-0.99
2018-11-29T20:00:10.385Z,-1.04
2018-11-29T20:02:37.621Z,-1.04
2018-11-29T20:05:06.060Z,-0.99
2018-11-29T20:07:33.308Z,-0.93
2018-11-29T20:10:00.549Z,-0.95
2018-11-29T20:12:27.876Z,-0.98
2018-11-29T20:14:55.116Z,-0.97
2018-11-29T20:17:22.381Z,-1.02
2018-11-29T20:19:49.628Z,-1.00
2018-11-29T20:22:16.919Z,-1.03
2018-11-29T20:24:44.153Z,-1.02
2018-11-29T20:27:11.378Z,-1.06
2018-11-29T20:29:38.645Z,-1.08
2018-11-29T20:32:05.878Z,-1.05
2018-11-29T20:34:33.148Z,-1.06
2018-11-29T20:37:00.345Z,-1.11
2018-11-29T20:39:27.622Z,-1.04
2018-11-29T20:41:54.915Z,-1.09
2018-11-29T20:44:22.132Z,-1.04
2018-11-29T20:46:49.555Z,-1.16
2018-11-29T20:49:16.631Z,-1.21
2018-11-29T20:51:43.848Z,-1.25
2018-11-29T20:54:11.054Z,-1.27
2018-11-29T20:56:38.343Z,-1.30
2018-11-29T20:59:05.582Z,-1.26
2018-11-29T21:01:32.837Z,-1.19
2018-11-29T21:04:00.041Z,-1.23
2018-11-29T21:06:27.353Z,-1.01
2018-11-29T21:08:54.556Z,-0.98
2018-11-29T21:11:21.803Z,-1.01
2018-11-29T21:13:49.053Z,-1.07
2018-11-29T21:16:16.251Z,-1.03
2018-11-29T21:18:43.447Z,-0.89
2018-11-29T21:21:10.743Z,-0.97
2018-11-29T21:23:38.101Z,-1.07
2018-11-29T21:26:05.415Z,-0.90
2018-11-29T21:28:32.679Z,-0.98
2018-11-29T21:31:01.565Z,-0.98
2018-11-29T21:33:29.281Z,-1.03
2018-11-29T21:35:56.529Z,-1.08
2018-11-29T21:38:23.729Z,-0.86
2018-11-29T21:41:05.702Z,-0.81
2018-11-29T21:43:32.906Z,-0.79
2018-11-29T21:46:00.084Z,-0.77
2018-11-29T21:48:27.248Z,-0.69
2018-11-29T21:50:54.473Z,-0.79
2018-11-29T21:53:21.674Z,-0.84
2018-11-29T21:55:48.894Z,-0.96
2018-11-29T21:58:17.021Z,-1.13
2018-11-29T22:00:44.198Z,-1.19
2018-11-29T22:03:11.349Z,-1.10
2018-11-29T22:05:38.532Z,-1.18
2018-11-29T22:08:05.801Z,-1.22
2018-11-29T22:10:33.064Z,-1.28
2018-11-29T22:13:00.774Z,-1.38
2018-11-29T22:15:27.450Z,-1.37
2018-11-29T22:18:16.946Z,-1.41
2018-11-29T22:20:44.166Z,-1.42
2018-11-29T22:23:11.318Z,-1.27
2018-11-29T22:25:38.488Z,-1.35
2018-11-29T22:28:05.697Z,-1.33
2018-11-29T22:30:32.883Z,-1.27
2018-11-29T22:33:00.049Z,-1.25
2018-11-29T22:35:27.327Z,-1.31
2018-11-29T22:37:54.474Z,-1.27
2018-11-29T22:40:21.675Z,-1.39
2018-11-29T22:42:48.795Z,-1.34
2018-11-29T22:45:16.216Z,-1.40
2018-11-29T22:47:43.243Z,-1.42
2018-11-29T22:50:10.461Z,-1.39
2018-11-29T22:52:37.598Z,-1.30
2018-11-29T22:55:05.694Z,-1.26
2018-11-29T22:57:32.826Z,-1.38
2018-11-29T22:59:59.971Z,-1.42
2018-11-29T23:02:27.163Z,-1.39
2018-11-29T23:04:54.446Z,-1.33
2018-11-29T23:07:21.578Z,-1.41
2018-11-29T23:09:48.757Z,-1.38
2018-11-29T23:12:20.451Z,-1.51
2018-11-29T23:14:47.623Z,-1.45
2018-11-29T23:17:14.814Z,-1.47
2018-11-29T23:19:41.990Z,-1.51
2018-11-29T23:22:09.186Z,-1.53
2018-11-29T23:24:36.345Z,-1.57
2018-11-29T23:27:03.585Z,-1.66
2018-11-29T23:29:30.766Z,-1.60
2018-11-29T23:31:57.933Z,-1.65
2018-11-29T23:34:25.082Z,-1.54
2018-11-29T23:36:52.254Z,-1.54
2018-11-29T23:39:19.446Z,-1.61
2018-11-29T23:41:46.622Z,-1.49
2018-11-29T23:44:13.781Z,-1.61
2018-11-29T23:46:40.935Z,-1.57
2018-11-29T23:49:08.125Z,-1.51
2018-11-29T23:51:35.330Z,-1.53
2018-11-29T23:54:02.515Z,-1.50
2018-11-29T23:56:29.652Z,-1.52
2018-11-29T23:58:56.830Z,-1.59
